createdAt,value
2016-11-08T00:00:10.453Z,1004.41
2016-11-08T00:01:10.468Z,1004.47
2016-11-08T00:02:10.488Z,1004.46
2016-11-08T00:03:10.505Z,1004.49
2016-11-08T00:04:10.521Z,1004.43
2016-11-08T00:05:10.539Z,1004.46
2016-11-08T00:07:10.576Z,1004.4
2016-11-08T00:08:10.590Z,1004.41
2016-11-08T00:09:10.608Z,1004.37
2016-11-08T00:10:10.625Z,1004.38
2016-11-08T00:11:10.645Z,1004.42
2016-11-08T00:12:10.662Z,1004.38
2016-11-08T00:13:10.679Z,1004.43
2016-11-08T00:14:10.695Z,1004.41
2016-11-08T00:15:10.713Z,1004.36
2016-11-08T00:16:10.731Z,1004.37
2016-11-08T00:17:10.746Z,1004.35
2016-11-08T00:18:10.766Z,1004.37
2016-11-08T00:19:10.780Z,1004.39
2016-11-08T00:20:10.798Z,1004.32
2016-11-08T00:21:10.818Z,1004.35
2016-11-08T00:22:10.835Z,1004.37
2016-11-08T00:23:10.852Z,1004.37
2016-11-08T00:24:10.869Z,1004.36
2016-11-08T00:25:10.887Z,1004.37
2016-11-08T00:26:10.903Z,1004.34
2016-11-08T00:27:10.919Z,1004.38
2016-11-08T00:28:10.938Z,1004.33
2016-11-08T00:29:10.956Z,1004.39
2016-11-08T00:30:10.970Z,1004.4
2016-11-08T00:31:10.988Z,1004.34
2016-11-08T00:32:11.008Z,1004.38
2016-11-08T00:33:11.023Z,1004.41
2016-11-08T00:34:11.041Z,1004.42
2016-11-08T00:35:11.059Z,1004.44
2016-11-08T00:36:11.074Z,1004.39
2016-11-08T00:37:11.093Z,1004.41
2016-11-08T00:39:11.128Z,1004.42
2016-11-08T00:40:11.143Z,1004.38
2016-11-08T00:41:11.160Z,1004.39
2016-11-08T00:42:11.177Z,1004.37
2016-11-08T00:43:11.198Z,1004.36
2016-11-08T00:44:11.215Z,1004.36
2016-11-08T00:45:11.231Z,1004.39
2016-11-08T00:46:11.246Z,1004.36
2016-11-08T00:47:11.264Z,1004.32
2016-11-08T00:48:11.280Z,1004.34
2016-11-08T00:49:11.298Z,1004.35
2016-11-08T00:50:11.315Z,1004.31
2016-11-08T00:51:11.333Z,1004.32
2016-11-08T00:52:11.349Z,1004.32
2016-11-08T00:53:11.369Z,1004.35
2016-11-08T00:55:11.405Z,1004.35
2016-11-08T00:56:11.420Z,1004.36
2016-11-08T00:57:11.438Z,1004.42
2016-11-08T00:58:11.455Z,1004.38
2016-11-08T00:59:11.472Z,1004.39
2016-11-08T01:00:11.487Z,1004.4
2016-11-08T01:01:11.507Z,1004.41
2016-11-08T01:02:11.524Z,1004.4
2016-11-08T01:03:11.538Z,1004.4
2016-11-08T01:04:11.558Z,1004.43
2016-11-08T01:05:11.575Z,1004.43
2016-11-08T01:06:11.593Z,1004.42
2016-11-08T01:07:11.607Z,1004.41
2016-11-08T01:08:11.624Z,1004.4
2016-11-08T01:09:11.644Z,1004.4
2016-11-08T01:11:11.676Z,1004.37
2016-11-08T01:12:11.693Z,1004.33
2016-11-08T01:13:11.713Z,1004.36
2016-11-08T01:14:11.727Z,1004.31
2016-11-08T01:15:11.745Z,1004.35
2016-11-08T01:16:11.764Z,1004.29
2016-11-08T01:17:11.779Z,1004.32
2016-11-08T01:18:11.796Z,1004.31
2016-11-08T01:19:11.813Z,1004.32
2016-11-08T01:20:11.833Z,1004.28
2016-11-08T01:21:11.849Z,1004.27
2016-11-08T01:22:11.866Z,1004.31
2016-11-08T01:23:11.881Z,1004.28
2016-11-08T01:24:11.899Z,1004.23
2016-11-08T01:25:11.931Z,1004.26
2016-11-08T01:27:11.952Z,1004.26
2016-11-08T01:28:11.967Z,1004.25
2016-11-08T01:29:11.983Z,1004.24
2016-11-08T01:30:12.001Z,1004.22
2016-11-08T01:31:12.018Z,1004.23
2016-11-08T01:32:12.036Z,1004.24
2016-11-08T01:33:12.051Z,1004.25
2016-11-08T01:34:12.068Z,1004.22
2016-11-08T01:35:12.088Z,1004.19
2016-11-08T01:36:12.104Z,1004.22
2016-11-08T01:37:12.121Z,1004.23
2016-11-08T01:38:12.136Z,1004.18
2016-11-08T01:39:12.154Z,1004.21
2016-11-08T01:40:12.173Z,1004.19
2016-11-08T01:42:12.208Z,1004.16
2016-11-08T01:43:12.221Z,1004.16
2016-11-08T01:44:12.243Z,1004.14
2016-11-08T01:45:12.258Z,1004.13
2016-11-08T01:46:12.275Z,1004.12
2016-11-08T01:47:12.289Z,1004.1
2016-11-08T01:48:12.308Z,1004.1
2016-11-08T01:49:12.325Z,1004.08
2016-11-08T01:50:12.339Z,1004.09
2016-11-08T01:51:12.357Z,1004.07
2016-11-08T01:52:12.376Z,1004.11
2016-11-08T01:53:12.393Z,1004.11
2016-11-08T01:54:12.407Z,1004.07
2016-11-08T01:55:12.424Z,1004.08
2016-11-08T01:56:12.441Z,1004.07
2016-11-08T01:57:12.459Z,1004.07
2016-11-08T01:58:12.475Z,1004.08
2016-11-08T01:59:12.492Z,1004.07
2016-11-08T02:00:12.509Z,1004.07
2016-11-08T02:01:12.525Z,1004.07
2016-11-08T02:02:12.542Z,1004.07
2016-11-08T02:03:12.560Z,1004.06
2016-11-08T02:04:12.579Z,1004.08
2016-11-08T02:05:12.593Z,1004.09
2016-11-08T02:06:12.612Z,1004.09
2016-11-08T02:07:12.629Z,1004.11
2016-11-08T02:08:12.646Z,1004.07
2016-11-08T02:09:12.663Z,1004.1
2016-11-08T02:10:12.679Z,1004.1
2016-11-08T02:11:12.695Z,1004.12
2016-11-08T02:12:12.713Z,1004.1
2016-11-08T02:14:12.745Z,1004.14
2016-11-08T02:15:12.764Z,1004.12
2016-11-08T02:16:12.778Z,1004.12
2016-11-08T02:17:12.827Z,1004.14
2016-11-08T02:18:12.814Z,1004.11
2016-11-08T02:19:12.832Z,1004.1
2016-11-08T02:20:12.848Z,1004.12
2016-11-08T02:21:12.863Z,1004.08
2016-11-08T02:22:12.880Z,1004.05
2016-11-08T02:23:12.897Z,1004.11
2016-11-08T02:24:12.913Z,1004.12
2016-11-08T02:25:12.930Z,1004.1
2016-11-08T02:26:12.950Z,1004.07
2016-11-08T02:27:12.967Z,1004.07
2016-11-08T02:28:12.982Z,1004.08
2016-11-08T02:30:13.015Z,1004.06
2016-11-08T02:31:13.031Z,1004.05
2016-11-08T02:32:13.050Z,1004.07
2016-11-08T02:33:13.065Z,1004.07
2016-11-08T02:34:13.083Z,1004.02
2016-11-08T02:35:13.098Z,1004.06
2016-11-08T02:36:13.115Z,1004.07
2016-11-08T02:37:13.136Z,1004.04
2016-11-08T02:38:13.151Z,1004.06
2016-11-08T02:39:13.168Z,1004.04
2016-11-08T02:40:13.185Z,1004.04
2016-11-08T02:41:13.202Z,1004.01
2016-11-08T02:42:13.217Z,1003.99
2016-11-08T02:43:13.233Z,1003.98
2016-11-08T02:44:13.252Z,1003.95
2016-11-08T02:46:13.285Z,1003.93
2016-11-08T02:47:13.300Z,1003.92
2016-11-08T02:48:13.319Z,1003.93
2016-11-08T02:49:13.336Z,1003.93
2016-11-08T02:50:13.353Z,1003.91
2016-11-08T02:51:13.370Z,1003.92
2016-11-08T02:52:13.385Z,1003.88
2016-11-08T02:53:13.402Z,1003.91
2016-11-08T02:54:13.418Z,1003.92
2016-11-08T02:55:13.437Z,1003.95
2016-11-08T02:56:13.453Z,1003.94
2016-11-08T02:57:13.470Z,1003.98
2016-11-08T02:58:13.487Z,1004
2016-11-08T02:59:13.504Z,1004
2016-11-08T03:00:13.519Z,1004
2016-11-08T03:02:13.555Z,1003.98
2016-11-08T03:03:13.570Z,1003.99
2016-11-08T03:04:13.588Z,1004
2016-11-08T03:05:13.603Z,1003.99
2016-11-08T03:06:13.622Z,1003.99
2016-11-08T03:07:13.638Z,1004.01
2016-11-08T03:08:13.655Z,1004.01
2016-11-08T03:09:13.672Z,1003.99
2016-11-08T03:10:13.689Z,1003.96
2016-11-08T03:11:13.705Z,1004.01
2016-11-08T03:12:13.722Z,1004.01
2016-11-08T03:13:13.739Z,1003.99
2016-11-08T03:14:13.754Z,1004.01
2016-11-08T03:15:13.773Z,1004.02
2016-11-08T03:17:13.805Z,1004.01
2016-11-08T03:18:13.823Z,1004.01
2016-11-08T03:19:13.840Z,1003.99
2016-11-08T03:20:13.855Z,1004.01
2016-11-08T03:21:13.873Z,1003.95
2016-11-08T03:22:13.891Z,1003.97
2016-11-08T03:23:13.908Z,1003.98
2016-11-08T03:24:13.923Z,1003.95
2016-11-08T03:25:14.440Z,1003.96
2016-11-08T03:26:13.958Z,1003.96
2016-11-08T03:27:13.975Z,1003.96
2016-11-08T03:28:13.992Z,1003.96
2016-11-08T03:29:14.008Z,1003.97
2016-11-08T03:30:14.025Z,1003.98
2016-11-08T03:31:14.042Z,1003.98
2016-11-08T03:32:14.059Z,1003.97
2016-11-08T03:33:14.073Z,1003.95
2016-11-08T03:34:14.092Z,1003.95
2016-11-08T03:35:14.109Z,1003.97
2016-11-08T03:36:14.125Z,1003.93
2016-11-08T03:37:14.140Z,1003.92
2016-11-08T03:38:14.159Z,1003.91
2016-11-08T03:39:14.176Z,1003.97
2016-11-08T03:40:14.190Z,1003.89
2016-11-08T03:41:14.209Z,1003.9
2016-11-08T03:42:14.224Z,1003.87
2016-11-08T03:43:14.243Z,1003.87
2016-11-08T03:44:14.259Z,1003.87
2016-11-08T03:45:14.276Z,1003.84
2016-11-08T03:46:14.293Z,1003.86
2016-11-08T03:47:14.307Z,1003.83
2016-11-08T03:49:14.343Z,1003.84
2016-11-08T03:50:14.360Z,1003.82
2016-11-08T03:51:14.376Z,1003.78
2016-11-08T03:52:14.391Z,1003.77
2016-11-08T03:53:14.407Z,1003.75
2016-11-08T03:54:14.426Z,1003.77
2016-11-08T03:55:14.441Z,1003.77
2016-11-08T03:56:14.460Z,1003.78
2016-11-08T03:57:14.475Z,1003.71
2016-11-08T03:58:14.491Z,1003.68
2016-11-08T03:59:14.509Z,1003.69
2016-11-08T04:00:14.527Z,1003.66
2016-11-08T04:01:14.541Z,1003.67
2016-11-08T04:02:14.557Z,1003.69
2016-11-08T04:03:14.576Z,1003.65
2016-11-08T04:05:14.608Z,1003.69
2016-11-08T04:06:14.626Z,1003.71
2016-11-08T04:07:14.643Z,1003.7
2016-11-08T04:08:14.658Z,1003.71
2016-11-08T04:09:14.676Z,1003.68
2016-11-08T04:10:14.695Z,1003.69
2016-11-08T04:11:14.711Z,1003.7
2016-11-08T04:12:14.724Z,1003.69
2016-11-08T04:13:14.740Z,1003.7
2016-11-08T04:14:14.758Z,1003.7
2016-11-08T04:15:14.774Z,1003.67
2016-11-08T04:16:14.793Z,1003.63
2016-11-08T04:17:14.807Z,1003.67
2016-11-08T04:18:14.824Z,1003.62
2016-11-08T04:19:14.843Z,1003.62
2016-11-08T04:21:14.874Z,1003.6
2016-11-08T04:22:14.893Z,1003.58
2016-11-08T04:23:14.910Z,1003.62
2016-11-08T04:24:14.923Z,1003.54
2016-11-08T04:25:14.940Z,1003.53
2016-11-08T04:26:14.959Z,1003.57
2016-11-08T04:27:14.974Z,1003.59
2016-11-08T04:28:14.990Z,1003.55
2016-11-08T04:29:15.007Z,1003.53
2016-11-08T04:30:15.024Z,1003.57
2016-11-08T04:31:15.042Z,1003.59
2016-11-08T04:32:15.056Z,1003.59
2016-11-08T04:33:15.073Z,1003.59
2016-11-08T04:34:15.092Z,1003.57
2016-11-08T04:35:15.106Z,1003.56
2016-11-08T04:37:15.142Z,1003.57
2016-11-08T04:38:15.159Z,1003.57
2016-11-08T04:39:15.173Z,1003.56
2016-11-08T04:40:15.189Z,1003.53
2016-11-08T04:41:15.208Z,1003.52
2016-11-08T04:42:15.224Z,1003.56
2016-11-08T04:43:15.239Z,1003.52
2016-11-08T04:44:15.258Z,1003.56
2016-11-08T04:45:15.276Z,1003.59
2016-11-08T04:46:15.291Z,1003.59
2016-11-08T04:47:15.305Z,1003.5
2016-11-08T04:48:15.324Z,1003.56
2016-11-08T04:49:15.339Z,1003.55
2016-11-08T04:50:15.358Z,1003.58
2016-11-08T04:52:15.391Z,1003.53
2016-11-08T04:53:15.407Z,1003.5
2016-11-08T04:54:15.423Z,1003.53
2016-11-08T04:55:15.441Z,1003.52
2016-11-08T04:56:15.459Z,1003.58
2016-11-08T04:57:15.472Z,1003.53
2016-11-08T04:58:15.491Z,1003.54
2016-11-08T04:59:15.505Z,1003.55
2016-11-08T05:00:15.524Z,1003.52
2016-11-08T05:01:15.540Z,1003.51
2016-11-08T05:02:15.558Z,1003.54
2016-11-08T05:03:15.572Z,1003.54
2016-11-08T05:04:15.588Z,1003.5
2016-11-08T05:05:15.607Z,1003.5
2016-11-08T05:06:15.624Z,1003.45
2016-11-08T05:07:15.640Z,1003.48
2016-11-08T05:08:15.657Z,1003.49
2016-11-08T05:09:15.673Z,1003.46
2016-11-08T05:10:15.690Z,1003.49
2016-11-08T05:11:15.704Z,1003.45
2016-11-08T05:12:15.723Z,1003.46
2016-11-08T05:13:15.740Z,1003.47
2016-11-08T05:14:15.755Z,1003.43
2016-11-08T05:15:15.771Z,1003.46
2016-11-08T05:16:15.789Z,1003.46
2016-11-08T05:17:15.807Z,1003.48
2016-11-08T05:18:15.821Z,1003.47
2016-11-08T05:19:15.839Z,1003.46
2016-11-08T05:20:15.854Z,1003.5
2016-11-08T05:21:15.871Z,1003.49
2016-11-08T05:22:15.889Z,1003.42
2016-11-08T05:24:16.373Z,1003.34
2016-11-08T05:25:15.939Z,1003.41
2016-11-08T05:26:16.254Z,1003.39
2016-11-08T05:27:15.972Z,1003.4
2016-11-08T05:28:15.989Z,1003.44
2016-11-08T05:29:16.004Z,1003.42
2016-11-08T05:30:16.019Z,1003.44
2016-11-08T05:31:16.039Z,1003.43
2016-11-08T05:32:16.053Z,1003.42
2016-11-08T05:33:16.069Z,1003.45
2016-11-08T05:34:16.088Z,1003.44
2016-11-08T05:35:16.103Z,1003.42
2016-11-08T05:36:16.122Z,1003.46
2016-11-08T05:37:16.136Z,1003.47
2016-11-08T05:38:16.153Z,1003.43
2016-11-08T05:40:16.191Z,1003.44
2016-11-08T05:41:16.207Z,1003.42
2016-11-08T05:42:16.224Z,1003.48
2016-11-08T05:43:16.241Z,1003.41
2016-11-08T05:44:16.255Z,1003.48
2016-11-08T05:45:16.271Z,1003.45
2016-11-08T05:46:16.286Z,1003.44
2016-11-08T05:47:16.302Z,1003.47
2016-11-08T05:48:16.319Z,1003.44
2016-11-08T05:49:16.335Z,1003.47
2016-11-08T05:50:16.354Z,1003.47
2016-11-08T05:51:16.369Z,1003.47
2016-11-08T05:52:16.387Z,1003.46
2016-11-08T05:53:16.404Z,1003.46
2016-11-08T05:54:16.419Z,1003.47
2016-11-08T05:56:16.451Z,1003.49
2016-11-08T05:57:16.469Z,1003.5
2016-11-08T05:58:16.488Z,1003.51
2016-11-08T05:59:16.505Z,1003.49
2016-11-08T06:00:16.518Z,1003.48
2016-11-08T06:01:16.787Z,1003.48
2016-11-08T06:02:16.552Z,1003.53
2016-11-08T06:03:16.569Z,1003.5
2016-11-08T06:04:16.584Z,1003.5
2016-11-08T06:05:16.603Z,1003.45
2016-11-08T06:06:16.617Z,1003.5
2016-11-08T06:07:16.634Z,1003.51
2016-11-08T06:08:16.653Z,1003.5
2016-11-08T06:09:16.669Z,1003.5
2016-11-08T06:10:16.686Z,1003.46
2016-11-08T06:12:16.719Z,1003.47
2016-11-08T06:13:16.734Z,1003.5
2016-11-08T06:14:16.750Z,1003.49
2016-11-08T06:15:16.769Z,1003.52
2016-11-08T06:16:16.786Z,1003.55
2016-11-08T06:17:16.800Z,1003.5
2016-11-08T06:18:16.817Z,1003.5
2016-11-08T06:19:16.836Z,1003.56
2016-11-08T06:20:16.853Z,1003.53
2016-11-08T06:21:16.866Z,1003.52
2016-11-08T06:22:16.884Z,1003.58
2016-11-08T06:23:16.900Z,1003.57
2016-11-08T06:24:16.918Z,1003.56
2016-11-08T06:25:16.934Z,1003.58
2016-11-08T06:27:16.968Z,1003.54
2016-11-08T06:28:16.984Z,1003.53
2016-11-08T06:29:17.002Z,1003.53
2016-11-08T06:30:17.018Z,1003.55
2016-11-08T06:31:17.037Z,1003.54
2016-11-08T06:32:17.051Z,1003.54
2016-11-08T06:33:17.070Z,1003.55
2016-11-08T06:34:17.085Z,1003.53
2016-11-08T06:35:17.103Z,1003.52
2016-11-08T06:36:17.120Z,1003.5
2016-11-08T06:37:17.137Z,1003.49
2016-11-08T06:38:17.152Z,1003.51
2016-11-08T06:39:17.170Z,1003.54
2016-11-08T06:40:17.187Z,1003.58
2016-11-08T06:41:17.202Z,1003.57
2016-11-08T06:42:17.220Z,1003.57
2016-11-08T06:43:17.235Z,1003.55
2016-11-08T06:44:17.252Z,1003.55
2016-11-08T06:45:17.271Z,1003.61
2016-11-08T06:46:17.287Z,1003.59
2016-11-08T06:47:17.302Z,1003.56
2016-11-08T06:48:17.319Z,1003.6
2016-11-08T06:49:17.738Z,1003.59
2016-11-08T06:50:17.354Z,1003.62
2016-11-08T06:51:17.369Z,1003.6
2016-11-08T06:52:17.388Z,1003.61
2016-11-08T06:53:17.403Z,1003.61
2016-11-08T06:54:17.421Z,1003.59
2016-11-08T06:55:17.436Z,1003.57
2016-11-08T06:56:17.453Z,1003.6
2016-11-08T06:57:17.471Z,1003.6
2016-11-08T06:59:17.505Z,1003.65
2016-11-08T07:00:17.523Z,1003.62
2016-11-08T07:01:17.539Z,1003.6
2016-11-08T07:02:17.554Z,1003.6
2016-11-08T07:03:17.571Z,1003.62
2016-11-08T07:04:17.588Z,1003.66
2016-11-08T07:05:17.606Z,1003.6
2016-11-08T07:06:17.623Z,1003.59
2016-11-08T07:07:17.640Z,1003.6
2016-11-08T07:08:17.654Z,1003.57
2016-11-08T07:09:17.671Z,1003.62
2016-11-08T07:10:17.688Z,1003.59
2016-11-08T07:11:17.705Z,1003.6
2016-11-08T07:12:17.722Z,1003.61
2016-11-08T07:13:17.741Z,1003.55
2016-11-08T07:15:17.775Z,1003.59
2016-11-08T07:16:17.789Z,1003.59
2016-11-08T07:17:17.807Z,1003.61
2016-11-08T07:18:17.823Z,1003.57
2016-11-08T07:19:17.839Z,1003.59
2016-11-08T07:20:17.857Z,1003.56
2016-11-08T07:21:17.876Z,1003.5
2016-11-08T07:22:17.891Z,1003.49
2016-11-08T07:23:17.909Z,1003.48
2016-11-08T07:24:17.924Z,1003.51
2016-11-08T07:25:17.941Z,1003.5
2016-11-08T07:26:17.961Z,1003.51
2016-11-08T07:27:17.975Z,1003.46
2016-11-08T07:28:17.994Z,1003.5
2016-11-08T07:29:18.011Z,1003.56
2016-11-08T07:31:18.042Z,1003.52
2016-11-08T07:32:18.062Z,1003.55
2016-11-08T07:33:18.081Z,1003.53
2016-11-08T07:34:18.093Z,1003.54
2016-11-08T07:35:18.112Z,1003.54
2016-11-08T07:36:18.127Z,1003.55
2016-11-08T07:37:18.145Z,1003.53
2016-11-08T07:38:18.162Z,1003.53
2016-11-08T07:39:18.178Z,1003.53
2016-11-08T07:40:18.196Z,1003.52
2016-11-08T07:41:18.212Z,1003.52
2016-11-08T07:42:18.231Z,1003.51
2016-11-08T07:43:18.246Z,1003.55
2016-11-08T07:44:18.264Z,1003.51
2016-11-08T07:45:18.281Z,1003.51
2016-11-08T07:47:18.316Z,1003.5
2016-11-08T07:48:18.332Z,1003.51
2016-11-08T07:49:18.348Z,1003.54
2016-11-08T07:50:18.367Z,1003.5
2016-11-08T07:51:18.383Z,1003.54
2016-11-08T07:52:18.399Z,1003.52
2016-11-08T07:53:18.417Z,1003.51
2016-11-08T07:54:18.435Z,1003.53
2016-11-08T07:55:18.451Z,1003.51
2016-11-08T07:56:18.469Z,1003.51
2016-11-08T07:57:18.485Z,1003.48
2016-11-08T07:58:18.502Z,1003.52
2016-11-08T07:59:18.522Z,1003.51
2016-11-08T08:00:18.539Z,1003.52
2016-11-08T08:02:18.571Z,1003.49
2016-11-08T08:03:18.590Z,1003.51
2016-11-08T08:04:18.606Z,1003.52
2016-11-08T08:05:18.624Z,1003.51
2016-11-08T08:06:18.642Z,1003.53
2016-11-08T08:07:18.675Z,1003.47
2016-11-08T08:08:18.675Z,1003.47
2016-11-08T08:09:18.691Z,1003.51
2016-11-08T08:10:18.708Z,1003.48
2016-11-08T08:11:18.725Z,1003.51
2016-11-08T08:12:18.743Z,1003.51
2016-11-08T08:13:18.761Z,1003.49
2016-11-08T08:14:18.778Z,1003.52
2016-11-08T08:15:18.795Z,1003.49
2016-11-08T08:16:18.811Z,1003.51
2016-11-08T08:17:18.829Z,1003.5
2016-11-08T08:18:18.846Z,1003.49
2016-11-08T08:19:18.862Z,1003.5
2016-11-08T08:20:18.879Z,1003.54
2016-11-08T08:21:18.897Z,1003.49
2016-11-08T08:22:18.913Z,1003.49
2016-11-08T08:23:18.932Z,1003.52
2016-11-08T08:24:18.948Z,1003.53
2016-11-08T08:25:18.965Z,1003.49
2016-11-08T08:26:19.184Z,1003.47
2016-11-08T08:27:18.999Z,1003.53
2016-11-08T08:28:19.019Z,1003.51
2016-11-08T08:29:19.033Z,1003.54
2016-11-08T08:30:19.051Z,1003.55
2016-11-08T08:31:19.120Z,1003.52
2016-11-08T08:32:19.535Z,1003.5
2016-11-08T08:34:20.423Z,1003.5
2016-11-08T08:35:19.138Z,1003.53
2016-11-08T08:36:19.754Z,1003.49
2016-11-08T08:37:19.173Z,1003.51
2016-11-08T08:38:19.188Z,1003.47
2016-11-08T08:39:19.206Z,1003.49
2016-11-08T08:40:19.323Z,1003.52
2016-11-08T08:41:19.240Z,1003.52
2016-11-08T08:42:19.376Z,1003.55
2016-11-08T08:43:19.274Z,1003.55
2016-11-08T08:44:19.291Z,1003.53
2016-11-08T08:45:19.311Z,1003.55
2016-11-08T08:46:21.081Z,1003.53
2016-11-08T08:47:19.343Z,1003.53
2016-11-08T08:48:19.363Z,1003.53
2016-11-08T08:50:19.395Z,1003.52
2016-11-08T08:51:20.464Z,1003.53
2016-11-08T08:52:19.432Z,1003.53
2016-11-08T08:53:19.747Z,1003.52
2016-11-08T08:54:19.466Z,1003.53
2016-11-08T08:55:19.486Z,1003.48
2016-11-08T08:56:19.504Z,1003.51
2016-11-08T08:57:19.521Z,1003.48
2016-11-08T08:58:19.889Z,1003.53
2016-11-08T08:59:20.510Z,1003.48
2016-11-08T09:00:19.576Z,1003.51
2016-11-08T09:01:19.595Z,1003.52
2016-11-08T09:02:19.610Z,1003.51
2016-11-08T09:03:19.629Z,1003.49
2016-11-08T09:04:19.697Z,1003.46
2016-11-08T09:06:19.680Z,1003.48
2016-11-08T09:07:19.748Z,1003.53
2016-11-08T09:08:19.717Z,1003.5
2016-11-08T09:10:20.401Z,1003.52
2016-11-08T09:11:19.768Z,1003.48
2016-11-08T09:12:19.785Z,1003.51
2016-11-08T09:13:20.152Z,1003.5
2016-11-08T09:14:19.919Z,1003.46
2016-11-08T09:15:19.988Z,1003.48
2016-11-08T09:16:19.955Z,1003.5
2016-11-08T09:17:19.872Z,1003.5
2016-11-08T09:18:19.890Z,1003.48
2016-11-08T09:19:19.907Z,1003.5
2016-11-08T09:20:19.925Z,1003.49
2016-11-08T09:22:20.060Z,1003.46
2016-11-08T09:23:20.029Z,1003.49
2016-11-08T09:24:21.247Z,1003.47
2016-11-08T09:25:20.012Z,1003.49
2016-11-08T09:26:20.080Z,1003.51
2016-11-08T09:27:20.048Z,1003.51
2016-11-08T09:28:20.666Z,1003.51
2016-11-08T09:29:20.084Z,1003.49
2016-11-08T09:30:20.100Z,1003.49
2016-11-08T09:31:20.118Z,1003.53
2016-11-08T09:32:20.135Z,1003.51
2016-11-08T09:33:20.154Z,1003.51
2016-11-08T09:34:20.172Z,1003.5
2016-11-08T09:35:20.190Z,1003.49
2016-11-08T09:37:20.224Z,1003.48
2016-11-08T09:38:20.792Z,1003.49
2016-11-08T09:39:20.259Z,1003.46
2016-11-08T09:40:20.478Z,1003.49
2016-11-08T09:41:20.295Z,1003.49
2016-11-08T09:42:20.312Z,1003.51
2016-11-08T09:43:20.380Z,1003.49
2016-11-08T09:44:21.149Z,1003.49
2016-11-08T09:46:20.384Z,1003.44
2016-11-08T09:47:20.401Z,1003.49
2016-11-08T09:48:21.322Z,1003.44
2016-11-08T09:49:20.438Z,1003.46
2016-11-08T09:50:20.456Z,1003.46
2016-11-08T09:51:20.476Z,1003.44
2016-11-08T09:52:20.493Z,1003.42
2016-11-08T09:53:20.559Z,1003.44
2016-11-08T09:54:20.528Z,1003.43
2016-11-08T09:55:20.645Z,1003.44
2016-11-08T09:56:20.562Z,1003.43
2016-11-08T09:57:21.583Z,1003.44
2016-11-08T09:58:21.651Z,1003.45
2016-11-08T09:59:20.768Z,1003.45
2016-11-08T10:00:22.588Z,1003.45
2016-11-08T10:01:20.752Z,1003.46
2016-11-08T10:02:20.671Z,1003.47
2016-11-08T10:03:21.640Z,1003.46
2016-11-08T10:04:20.807Z,1003.41
2016-11-08T10:05:21.227Z,1003.41
2016-11-08T10:06:20.743Z,1003.41
2016-11-08T10:07:20.760Z,1003.39
2016-11-08T10:09:20.796Z,1003.38
2016-11-08T10:10:20.814Z,1003.35
2016-11-08T10:11:20.832Z,1003.36
2016-11-08T10:12:20.849Z,1003.32
2016-11-08T10:13:20.868Z,1003.33
2016-11-08T10:14:20.886Z,1003.35
2016-11-08T10:15:20.903Z,1003.33
2016-11-08T10:16:20.922Z,1003.31
2016-11-08T10:17:20.941Z,1003.3
2016-11-08T10:18:20.958Z,1003.33
2016-11-08T10:19:20.975Z,1003.27
2016-11-08T10:20:20.995Z,1003.27
2016-11-08T10:21:21.013Z,1003.26
2016-11-08T10:22:21.031Z,1003.28
2016-11-08T10:23:21.049Z,1003.27
2016-11-08T10:25:21.086Z,1003.27
2016-11-08T10:26:21.103Z,1003.26
2016-11-08T10:27:21.121Z,1003.29
2016-11-08T10:28:21.140Z,1003.26
2016-11-08T10:29:21.159Z,1003.27
2016-11-08T10:30:21.177Z,1003.23
2016-11-08T10:31:21.195Z,1003.25
2016-11-08T10:32:21.214Z,1003.27
2016-11-08T10:33:21.232Z,1003.23
2016-11-08T10:34:21.251Z,1003.21
2016-11-08T10:35:21.269Z,1003.23
2016-11-08T10:36:21.287Z,1003.26
2016-11-08T10:37:21.306Z,1003.2
2016-11-08T10:38:21.324Z,1003.16
2016-11-08T10:39:21.343Z,1003.2
2016-11-08T10:41:21.379Z,1003.23
2016-11-08T10:42:21.398Z,1003.21
2016-11-08T10:43:21.417Z,1003.21
2016-11-08T10:44:21.434Z,1003.2
2016-11-08T10:45:21.452Z,1003.22
2016-11-08T10:46:21.471Z,1003.17
2016-11-08T10:47:21.490Z,1003.2
2016-11-08T10:48:21.508Z,1003.18
2016-11-08T10:49:21.527Z,1003.18
2016-11-08T10:50:21.545Z,1003.19
2016-11-08T10:51:21.564Z,1003.15
2016-11-08T10:52:21.582Z,1003.15
2016-11-08T10:53:21.601Z,1003.11
2016-11-08T10:54:21.620Z,1003.08
2016-11-08T10:55:21.637Z,1003.09
2016-11-08T10:57:21.675Z,1003.1
2016-11-08T10:58:21.695Z,1003.11
2016-11-08T10:59:21.713Z,1003.08
2016-11-08T11:00:21.731Z,1003.01
2016-11-08T11:01:21.751Z,1003.05
2016-11-08T11:02:21.768Z,1003.04
2016-11-08T11:03:21.787Z,1003.02
2016-11-08T11:04:21.806Z,1003.03
2016-11-08T11:05:21.825Z,1003
2016-11-08T11:06:21.845Z,1002.98
2016-11-08T11:07:21.863Z,1002.97
2016-11-08T11:08:21.883Z,1002.99
2016-11-08T11:09:21.901Z,1002.95
2016-11-08T11:10:21.920Z,1002.94
2016-11-08T11:12:21.959Z,1002.95
2016-11-08T11:13:21.976Z,1002.97
2016-11-08T11:14:21.995Z,1002.98
2016-11-08T11:15:22.014Z,1002.99
2016-11-08T11:16:22.035Z,1002.95
2016-11-08T11:17:22.052Z,1002.92
2016-11-08T11:18:22.071Z,1002.95
2016-11-08T11:19:22.090Z,1002.98
2016-11-08T11:20:22.108Z,1002.97
2016-11-08T11:21:22.127Z,1002.91
2016-11-08T11:22:22.147Z,1002.93
2016-11-08T11:23:22.165Z,1002.95
2016-11-08T11:24:22.183Z,1002.94
2016-11-08T11:25:22.204Z,1002.9
2016-11-08T11:26:22.222Z,1002.93
2016-11-08T11:27:22.241Z,1002.9
2016-11-08T11:28:22.260Z,1002.94
2016-11-08T11:29:22.279Z,1002.88
2016-11-08T11:30:22.299Z,1002.89
2016-11-08T11:31:22.317Z,1002.91
2016-11-08T11:32:22.341Z,1002.89
2016-11-08T11:33:22.355Z,1002.88
2016-11-08T11:34:22.373Z,1002.9
2016-11-08T11:35:22.392Z,1002.88
2016-11-08T11:36:22.411Z,1002.9
2016-11-08T11:37:22.431Z,1002.89
2016-11-08T11:38:22.449Z,1002.86
2016-11-08T11:39:22.467Z,1002.84
2016-11-08T11:40:22.487Z,1002.85
2016-11-08T11:41:22.505Z,1002.87
2016-11-08T11:42:22.523Z,1002.88
2016-11-08T11:44:22.563Z,1002.91
2016-11-08T11:45:22.580Z,1002.87
2016-11-08T11:46:22.600Z,1002.87
2016-11-08T11:47:22.667Z,1002.86
2016-11-08T11:48:22.636Z,1002.89
2016-11-08T11:49:22.657Z,1002.83
2016-11-08T11:50:22.674Z,1002.87
2016-11-08T11:51:22.694Z,1002.87
2016-11-08T11:52:22.712Z,1002.9
2016-11-08T11:53:22.731Z,1002.82
2016-11-08T11:54:22.750Z,1002.86
2016-11-08T11:55:22.768Z,1002.89
2016-11-08T11:56:22.838Z,1002.85
2016-11-08T11:57:22.806Z,1002.8
2016-11-08T11:58:22.826Z,1002.79
2016-11-08T12:00:22.865Z,1002.75
2016-11-08T12:01:22.882Z,1002.79
2016-11-08T12:02:22.901Z,1002.78
2016-11-08T12:03:22.920Z,1002.72
2016-11-08T12:04:22.937Z,1002.73
2016-11-08T12:05:22.958Z,1002.72
2016-11-08T12:06:22.977Z,1002.71
2016-11-08T12:07:22.996Z,1002.73
2016-11-08T12:08:23.013Z,1002.7
2016-11-08T12:09:23.283Z,1002.71
2016-11-08T12:10:23.052Z,1002.66
2016-11-08T12:11:23.070Z,1002.63
2016-11-08T12:12:23.139Z,1002.68
2016-11-08T12:13:23.358Z,1002.61
2016-11-08T12:14:23.128Z,1002.67
2016-11-08T12:16:23.164Z,1002.64
2016-11-08T12:17:23.184Z,1002.59
2016-11-08T12:18:23.203Z,1002.6
2016-11-08T12:19:23.221Z,1002.6
2016-11-08T12:20:23.241Z,1002.59
2016-11-08T12:21:23.261Z,1002.57
2016-11-08T12:22:23.280Z,1002.57
2016-11-08T12:23:23.298Z,1002.54
2016-11-08T12:24:23.319Z,1002.53
2016-11-08T12:25:23.337Z,1002.52
2016-11-08T12:26:23.355Z,1002.53
2016-11-08T12:27:23.374Z,1002.52
2016-11-08T12:28:23.393Z,1002.46
2016-11-08T12:29:23.414Z,1002.45
2016-11-08T12:30:23.431Z,1002.44
2016-11-08T12:32:23.471Z,1002.45
2016-11-08T12:33:23.489Z,1002.44
2016-11-08T12:34:23.509Z,1002.43
2016-11-08T12:35:23.527Z,1002.42
2016-11-08T12:36:23.546Z,1002.41
2016-11-08T12:37:23.566Z,1002.39
2016-11-08T12:38:23.686Z,1002.44
2016-11-08T12:39:23.605Z,1002.42
2016-11-08T12:40:23.625Z,1002.44
2016-11-08T12:41:23.643Z,1002.41
2016-11-08T12:42:23.812Z,1002.4
2016-11-08T12:43:23.684Z,1002.4
2016-11-08T12:44:23.701Z,1002.37
2016-11-08T12:45:23.721Z,1002.37
2016-11-08T12:47:23.760Z,1002.33
2016-11-08T12:48:23.829Z,1002.31
2016-11-08T12:49:23.799Z,1002.35
2016-11-08T12:50:23.819Z,1002.3
2016-11-08T12:51:23.889Z,1002.33